Time;durP1;ratioP1;P1;durP2;ratioP2;P2;SDS_P1;SDS_P2;PMS_P1;PMS_P2;Temp;Humidity;BMP_temperature;BMP_pressure;BME280_temperature;BME280_humidity;BME280_pressure;Samples;Min_cycle;Max_cycle;Signal;HPM_P1;HPM_P2
2024/01/29 00:01:47;;;;;;;10.25;5.05;;;;;;;5.38;66.78;101448.97;4951644;29;20038;-27
2024/01/29 00:04:13;;;;;;;8.77;4.50;;;;;;;5.18;67.86;101447.97;4952327;29;20027;-26
2024/01/29 00:06:38;;;;;;;8.95;4.90;;;;;;;5.03;68.42;101453.56;4952860;29;20042;-26
2024/01/29 00:09:03;;;;;;;6.80;4.63;;;;;;;4.84;69.68;101448.09;4935209;29;20483;-25
2024/01/29 00:11:29;;;;;;;9.10;5.22;;;;;;;4.90;71.37;101452.88;4952990;29;20035;-26
2024/01/29 00:13:54;;;;;;;10.73;4.30;;;;;;;4.71;72.64;101458.81;4952701;29;20027;-26
2024/01/29 00:16:19;;;;;;;9.15;4.95;;;;;;;4.59;73.12;101465.91;4952744;29;20035;-26
2024/01/29 00:18:45;;;;;;;8.18;4.55;;;;;;;4.32;74.51;101468.91;4952616;29;20033;-26
2024/01/29 00:21:12;;;;;;;6.00;3.53;;;;;;;4.17;75.82;101478.00;4952831;29;20392;-26
2024/01/29 00:23:38;;;;;;;6.22;3.72;;;;;;;4.49;74.16;101475.47;4952932;29;20408;-26
2024/01/29 00:26:03;;;;;;;5.65;3.17;;;;;;;4.28;74.67;101473.59;4952475;29;20027;-26
2024/01/29 00:28:28;;;;;;;5.13;3.28;;;;;;;4.30;75.44;101476.94;4952688;29;20042;-26
2024/01/29 00:30:54;;;;;;;5.60;3.40;;;;;;;4.25;74.92;101487.00;4952431;29;20055;-26
2024/01/29 00:33:19;;;;;;;4.50;3.10;;;;;;;4.05;75.45;101491.16;4952459;29;20115;-26
2024/01/29 00:35:44;;;;;;;6.88;3.40;;;;;;;4.08;75.95;101485.69;4952201;29;20058;-25
2024/01/29 00:38:10;;;;;;;5.40;3.65;;;;;;;4.21;75.27;101480.31;4952416;29;20031;-27
2024/01/29 00:40:37;;;;;;;5.57;3.03;;;;;;;4.45;74.07;101482.78;4952684;29;20030;-25
2024/01/29 00:43:02;;;;;;;4.45;2.90;;;;;;;4.41;74.60;101484.00;4952316;29;20033;-26
2024/01/29 00:45:28;;;;;;;4.43;2.97;;;;;;;4.53;74.30;101484.00;4952468;29;20102;-25
2024/01/29 00:47:53;;;;;;;6.25;3.47;;;;;;;4.56;74.33;101495.13;4952049;29;20023;-26
2024/01/29 00:50:19;;;;;;;5.32;3.00;;;;;;;4.36;74.89;101496.72;4952034;29;20027;-41
2024/01/29 00:52:45;;;;;;;5.35;3.00;;;;;;;4.71;73.13;101493.09;4952223;29;20035;-40
2024/01/29 00:55:10;;;;;;;4.60;3.00;;;;;;;4.53;73.81;101498.00;4951868;29;20099;-39
2024/01/29 00:57:36;;;;;;;4.47;3.30;;;;;;;4.41;73.52;101486.63;4951799;29;20035;-39
2024/01/29 01:00:01;;;;;;;3.95;2.58;;;;;;;4.33;74.72;101498.75;4951817;29;20031;-39
2024/01/29 01:02:26;;;;;;;5.63;3.03;;;;;;;4.06;76.24;101500.78;4951832;29;20027;-40
2024/01/29 01:04:52;;;;;;;4.57;2.95;;;;;;;4.09;75.58;101499.69;4951869;29;20023;-40
2024/01/29 01:07:17;;;;;;;5.63;3.55;;;;;;;4.16;75.62;101494.78;4951191;29;20050;-39
2024/01/29 01:09:43;;;;;;;4.47;3.13;;;;;;;4.25;75.57;101484.38;4951620;29;20027;-39
2024/01/29 01:12:08;;;;;;;4.72;3.17;;;;;;;4.27;75.95;101476.34;4953096;28;20071;-40
2024/01/29 01:14:33;;;;;;;6.68;3.63;;;;;;;4.21;76.26;101461.84;4955450;29;20035;-40
2024/01/29 01:16:59;;;;;;;6.65;3.85;;;;;;;4.10;77.12;101472.41;4955519;29;20058;-40
2024/01/29 01:19:24;;;;;;;6.03;3.90;;;;;;;4.20;76.27;101468.06;4955652;29;20046;-40
2024/01/29 01:21:49;;;;;;;5.13;3.47;;;;;;;4.41;75.32;101481.38;4955624;29;20031;-42
2024/01/29 01:24:15;;;;;;;5.25;3.42;;;;;;;4.56;74.36;101474.03;4955519;29;20030;-38
2024/01/29 01:26:40;;;;;;;6.55;3.63;;;;;;;4.25;75.45;101476.47;4955092;29;20027;-39
2024/01/29 01:29:05;;;;;;;6.75;4.13;;;;;;;4.52;74.91;101458.59;4955073;29;20086;-38
2024/01/29 01:31:31;;;;;;;6.80;3.85;;;;;;;4.21;76.36;101464.50;4955499;29;20097;-39
2024/01/29 01:33:56;;;;;;;7.13;4.22;;;;;;;4.02;77.42;101467.72;4954864;29;20102;-40
2024/01/29 01:36:22;;;;;;;6.20;3.70;;;;;;;3.98;77.83;101447.84;4955450;29;20403;-26
2024/01/29 01:38:48;;;;;;;7.65;4.00;;;;;;;4.22;76.82;101458.25;4955068;29;20086;-27
2024/01/29 01:41:13;;;;;;;5.20;3.35;;;;;;;4.01;77.35;101459.94;4954982;29;20023;-26
2024/01/29 01:43:39;;;;;;;5.45;3.00;;;;;;;4.06;76.58;101457.78;4954909;29;20479;-26
2024/01/29 01:46:04;;;;;;;6.50;3.35;;;;;;;4.24;75.80;101456.31;4954225;29;20039;-26
2024/01/29 01:48:33;;;;;;;5.63;3.38;;;;;;;4.43;74.83;101453.06;4953968;29;20035;-26
2024/01/29 01:51:00;;;;;;;7.03;3.67;;;;;;;4.64;74.36;101450.53;4954317;29;20035;-26
2024/01/29 01:53:28;;;;;;;4.75;2.95;;;;;;;4.58;73.76;101451.03;4954234;29;20122;-26
2024/01/29 01:55:53;;;;;;;4.70;3.20;;;;;;;4.41;74.23;101443.63;4954191;29;20027;-26
2024/01/29 01:58:19;;;;;;;5.57;3.10;;;;;;;4.40;74.48;101447.22;4954246;29;20031;-26
2024/01/29 02:00:45;;;;;;;7.50;3.20;;;;;;;4.64;73.57;101447.06;4954029;29;20034;-26
2024/01/29 02:03:11;;;;;;;5.95;3.33;;;;;;;4.50;73.76;101450.81;4953942;29;20039;-26
2024/01/29 02:05:36;;;;;;;5.10;3.35;;;;;;;4.23;74.96;101445.94;4954265;29;20026;-26
2024/01/29 02:08:03;;;;;;;6.25;3.30;;;;;;;4.16;75.74;101448.19;4953906;29;20510;-26
2024/01/29 02:10:29;;;;;;;5.15;3.20;;;;;;;4.28;75.10;101446.38;4953826;29;20110;-26
2024/01/29 02:12:55;;;;;;;5.25;3.00;;;;;;;4.28;74.79;101446.38;4954234;29;20456;-26
2024/01/29 02:15:20;;;;;;;6.25;3.22;;;;;;;4.25;74.99;101441.38;4937057;29;20031;-26
2024/01/29 02:17:46;;;;;;;5.05;3.20;;;;;;;4.29;74.39;101458.63;4954274;29;20027;-26
2024/01/29 02:20:12;;;;;;;5.03;3.13;;;;;;;4.49;73.48;101452.63;4953741;29;20106;-27
2024/01/29 02:22:44;;;;;;;4.53;3.10;;;;;;;4.55;73.72;101453.94;4945493;29;20024;-26
2024/01/29 02:25:10;;;;;;;5.03;3.22;;;;;;;4.52;73.17;101454.16;4941178;29;20020;-26
2024/01/29 02:27:36;;;;;;;4.72;3.40;;;;;;;4.55;73.08;101451.28;4953888;29;20106;-26
2024/01/29 02:30:02;;;;;;;5.00;3.35;;;;;;;4.53;72.89;101449.72;4954029;29;20027;-26
2024/01/29 02:32:27;;;;;;;6.10;3.33;;;;;;;4.57;73.25;101454.63;4953703;29;20488;-26
2024/01/29 02:34:53;;;;;;;6.40;3.42;;;;;;;4.64;72.24;101452.34;4953818;29;20027;-26
2024/01/29 02:37:18;;;;;;;5.53;3.40;;;;;;;4.41;72.32;101447.09;4954072;29;20038;-25
2024/01/29 02:39:43;;;;;;;6.82;3.60;;;;;;;4.56;72.98;101460.03;4954047;29;20102;-26
2024/01/29 02:42:09;;;;;;;6.63;3.40;;;;;;;4.44;72.63;101467.13;4954104;29;20057;-26
2024/01/29 02:44:34;;;;;;;5.28;3.42;;;;;;;4.44;72.25;101464.47;4953833;29;20107;-26
2024/01/29 02:46:59;;;;;;;6.53;3.63;;;;;;;4.67;71.72;101462.66;4936821;29;20039;-26
2024/01/29 02:49:25;;;;;;;7.40;3.70;;;;;;;4.38;72.24;101463.16;4937025;29;20030;-26
2024/01/29 02:51:50;;;;;;;4.35;3.17;;;;;;;4.20;72.91;101467.25;4954565;29;20032;-26
2024/01/29 02:54:16;;;;;;;5.97;3.35;;;;;;;4.05;73.75;101475.38;4954183;29;20349;-27
2024/01/29 02:56:41;;;;;;;5.70;3.58;;;;;;;3.97;74.24;101476.94;4954038;29;20135;-26
2024/01/29 02:59:07;;;;;;;5.82;3.90;;;;;;;3.83;74.77;101470.94;4954173;29;20088;-26
2024/01/29 03:01:32;;;;;;;7.40;3.97;;;;;;;3.93;75.18;101471.06;4954187;29;20031;-40
2024/01/29 03:03:58;;;;;;;5.75;3.65;;;;;;;4.24;73.45;101477.41;4953920;29;20027;-41
2024/01/29 03:06:23;;;;;;;7.72;3.90;;;;;;;4.21;73.27;101471.56;4954041;29;20022;-39
2024/01/29 03:08:49;;;;;;;8.45;4.55;;;;;;;4.12;74.42;101470.47;4953991;29;20019;-40
2024/01/29 03:11:14;;;;;;;10.57;5.10;;;;;;;4.18;74.16;101472.63;4953885;29;20027;-38
2024/01/29 03:13:39;;;;;;;12.43;5.70;;;;;;;4.08;74.55;101476.94;4954166;29;20023;-40
2024/01/29 03:16:05;;;;;;;8.93;5.35;;;;;;;4.18;75.10;101477.91;4953857;29;20114;-40
2024/01/29 03:18:31;;;;;;;8.55;4.75;;;;;;;4.51;73.97;101478.84;4953782;29;20496;-40
2024/01/29 03:20:56;;;;;;;8.23;4.47;;;;;;;4.34;73.64;101479.34;4953877;29;20027;-37
2024/01/29 03:23:21;;;;;;;7.80;4.50;;;;;;;4.08;75.14;101490.13;4953815;29;20406;-40
2024/01/29 03:25:47;;;;;;;8.95;4.60;;;;;;;3.74;75.47;101492.69;4953816;29;20196;-39
2024/01/29 03:28:13;;;;;;;9.00;4.30;;;;;;;3.80;75.74;101491.38;4953590;29;20102;-39
2024/01/29 03:30:38;;;;;;;8.32;4.70;;;;;;;3.49;76.61;101486.63;4953282;29;20050;-39
2024/01/29 03:33:03;;;;;;;7.45;4.57;;;;;;;3.66;76.83;101489.81;4953325;29;20047;-38
2024/01/29 03:35:29;;;;;;;7.22;4.47;;;;;;;3.69;76.33;101484.28;4953225;28;20055;-40
2024/01/29 03:37:54;;;;;;;8.07;4.55;;;;;;;3.87;75.48;101482.06;4953673;29;20027;-37
2024/01/29 03:40:20;;;;;;;8.43;4.53;;;;;;;3.84;75.15;101480.50;4953098;29;20106;-39
2024/01/29 03:42:45;;;;;;;8.10;4.65;;;;;;;3.96;75.02;101480.50;4953548;29;20376;-37
2024/01/29 03:45:10;;;;;;;7.65;4.70;;;;;;;4.05;74.23;101485.91;4953261;29;20122;-38
2024/01/29 03:47:36;;;;;;;7.43;3.97;;;;;;;4.13;74.35;101493.22;4953623;29;20024;-27
2024/01/29 03:50:04;;;;;;;6.35;4.00;;;;;;;3.99;74.53;101496.09;4953439;29;20103;-26
2024/01/29 03:52:29;;;;;;;6.72;3.95;;;;;;;3.98;75.22;101503.16;4953175;29;20063;-26
2024/01/29 03:54:54;;;;;;;7.97;4.60;;;;;;;4.06;74.53;101492.88;4953084;29;20062;-26
2024/01/29 03:57:20;;;;;;;6.32;4.20;;;;;;;4.03;74.98;101500.16;4953450;29;20024;-26
2024/01/29 03:59:45;;;;;;;6.90;4.50;;;;;;;3.86;75.17;101490.91;4954692;29;20024;-40
2024/01/29 04:02:10;;;;;;;6.05;4.20;;;;;;;4.05;74.87;101506.16;4953566;29;20107;-41
2024/01/29 04:04:36;;;;;;;8.27;4.60;;;;;;;4.16;75.79;101506.16;4953139;29;20443;-41
2024/01/29 04:07:01;;;;;;;6.13;4.28;;;;;;;3.91;76.93;101513.31;4952775;29;20403;-27
2024/01/29 04:09:28;;;;;;;7.60;4.63;;;;;;;3.94;76.48;101519.31;4952937;29;20019;-32
2024/01/29 04:11:53;;;;;;;6.70;4.20;;;;;;;3.57;77.72;101514.19;4952989;29;20171;-27
2024/01/29 04:14:21;;;;;;;7.70;4.57;;;;;;;3.76;77.75;101517.13;4952624;29;20539;-27
2024/01/29 04:16:46;;;;;;;6.60;4.55;;;;;;;3.63;77.84;101524.25;4952780;29;20091;-26
2024/01/29 04:19:13;;;;;;;8.02;4.03;;;;;;;3.84;77.05;101522.63;4953038;29;20071;-26
2024/01/29 04:21:44;;;;;;;8.27;4.63;;;;;;;3.82;76.98;101511.38;4953231;29;20495;-27
2024/01/29 04:24:13;;;;;;;6.93;4.35;;;;;;;3.68;78.41;101507.16;4952853;29;20106;-27
2024/01/29 04:26:40;;;;;;;7.68;4.50;;;;;;;3.72;78.30;101513.88;4942622;29;20026;-26
2024/01/29 04:29:06;;;;;;;12.70;7.57;;;;;;;3.65;78.31;101510.00;4944712;29;20035;-40
2024/01/29 04:31:31;;;;;;;7.85;4.95;;;;;;;3.46;78.66;101515.81;4952309;29;20034;-41
2024/01/29 04:33:57;;;;;;;7.75;5.13;;;;;;;3.42;78.91;101524.06;4951832;29;20452;-41
2024/01/29 04:36:22;;;;;;;8.60;4.65;;;;;;;3.47;79.13;101528.03;4952039;29;20031;-40
2024/01/29 04:38:49;;;;;;;8.60;5.03;;;;;;;3.44;79.79;101530.88;4952126;29;20038;-40
2024/01/29 04:41:21;;;;;;;11.20;5.63;;;;;;;3.41;79.71;101535.53;4952473;29;20098;-41
2024/01/29 04:43:47;;;;;;;11.57;6.78;;;;;;;3.39;79.84;101535.66;4945661;29;20560;-41
2024/01/29 04:46:13;;;;;;;16.25;6.50;;;;;;;3.69;79.69;101543.09;4933193;29;20032;-40
2024/01/29 04:48:39;;;;;;;15.35;8.35;;;;;;;3.12;80.96;101547.25;4946794;29;20121;-38
2024/01/29 04:51:08;;;;;;;14.70;7.65;;;;;;;2.81;82.25;101551.22;4941626;29;20039;-39
2024/01/29 04:53:35;;;;;;;12.43;7.78;;;;;;;2.84;82.48;101540.50;4942435;29;20469;-39
2024/01/29 04:56:04;;;;;;;12.73;6.80;;;;;;;2.87;81.01;101555.22;4936723;29;20115;-39
2024/01/29 04:58:30;;;;;;;9.13;5.57;;;;;;;2.62;81.96;101556.94;4936653;29;20456;-39
2024/01/29 05:00:56;;;;;;;10.35;5.88;;;;;;;2.73;82.09;101562.28;4941464;29;20680;-39
2024/01/29 05:03:22;;;;;;;10.00;5.85;;;;;;;2.58;81.16;101568.63;4956095;29;20036;-38
2024/01/29 05:05:47;;;;;;;8.52;5.15;;;;;;;2.57;81.52;101563.47;4956371;29;20090;-40
2024/01/29 05:08:13;;;;;;;9.20;5.43;;;;;;;2.64;81.36;101569.97;4956741;29;20058;-40
2024/01/29 05:10:39;;;;;;;10.05;5.20;;;;;;;2.56;80.82;101561.81;4956388;29;20491;-39
2024/01/29 05:13:05;;;;;;;9.90;5.25;;;;;;;2.69;80.56;101575.78;4956719;29;20082;-40
2024/01/29 05:15:30;;;;;;;9.60;5.63;;;;;;;2.30;82.51;101577.56;4956729;29;20023;-40
2024/01/29 05:17:56;;;;;;;9.27;5.45;;;;;;;2.42;82.47;101578.50;4956553;29;20050;-40
2024/01/29 05:20:22;;;;;;;9.75;6.00;;;;;;;2.58;82.24;101576.50;4955867;29;20498;-40
2024/01/29 05:22:47;;;;;;;8.40;5.18;;;;;;;2.35;81.59;101584.19;4956599;29;20031;-39
2024/01/29 05:25:13;;;;;;;8.15;5.38;;;;;;;2.27;81.78;101589.13;4956230;29;20024;-41
2024/01/29 05:27:38;;;;;;;13.15;5.70;;;;;;;2.15;82.38;101587.31;4956267;29;20448;-40
2024/01/29 05:30:04;;;;;;;10.00;5.10;;;;;;;2.06;82.90;101585.34;4952460;29;20042;-41
2024/01/29 05:32:29;;;;;;;7.88;5.28;;;;;;;2.00;83.07;101588.34;4956037;29;20047;-40
2024/01/29 05:34:55;;;;;;;7.60;4.40;;;;;;;1.86;82.32;101591.91;4938708;29;20029;-41
2024/01/29 05:37:20;;;;;;;7.15;5.10;;;;;;;1.86;83.84;101595.38;4956500;29;20066;-40
2024/01/29 05:39:45;;;;;;;8.25;4.95;;;;;;;1.75;84.12;101603.97;4955435;29;20055;-39
2024/01/29 05:42:11;;;;;;;9.70;5.07;;;;;;;1.85;83.35;101601.59;4955384;29;20027;-40
2024/01/29 05:44:36;;;;;;;8.68;5.15;;;;;;;1.79;82.20;101607.25;4955705;29;20019;-39
2024/01/29 05:47:02;;;;;;;8.35;4.80;;;;;;;1.85;81.47;101598.13;4955668;29;20055;-40
2024/01/29 05:49:27;;;;;;;9.20;5.10;;;;;;;2.07;79.21;101600.13;4954569;29;20030;-41
2024/01/29 05:51:52;;;;;;;8.77;4.88;;;;;;;2.20;78.87;101602.78;4953864;29;20062;-41
2024/01/29 05:54:18;;;;;;;8.45;4.80;;;;;;;2.32;75.95;101604.56;4955428;29;20024;-40
2024/01/29 05:56:45;;;;;;;10.32;5.70;;;;;;;2.39;75.93;101607.63;4956253;29;20538;-40
2024/01/29 05:59:10;;;;;;;7.72;4.82;;;;;;;2.25;75.14;101611.22;4950556;28;20109;-40
2024/01/29 06:01:36;;;;;;;7.78;4.18;;;;;;;2.14;73.42;101617.19;4953931;29;20102;-39
2024/01/29 06:04:01;;;;;;;6.35;4.07;;;;;;;2.12;73.52;101617.28;4954105;29;20038;-38
2024/01/29 06:06:27;;;;;;;7.53;4.57;;;;;;;2.07;73.25;101614.09;4954498;29;20019;-39
2024/01/29 06:08:53;;;;;;;7.70;4.88;;;;;;;2.20;72.69;101616.75;4954007;29;20023;-39
2024/01/29 06:11:19;;;;;;;6.30;4.20;;;;;;;2.36;72.51;101619.19;4954757;29;20037;-39
2024/01/29 06:13:45;;;;;;;8.20;4.50;;;;;;;2.28;72.19;101619.69;4954139;29;20023;-43
2024/01/29 06:16:10;;;;;;;8.63;4.38;;;;;;;2.28;72.66;101622.31;4954781;29;20028;-37
2024/01/29 06:18:36;;;;;;;7.07;4.35;;;;;;;2.14;71.65;101607.50;4955306;29;20424;-40
2024/01/29 06:21:01;;;;;;;8.93;4.50;;;;;;;2.16;71.68;101615.28;4955086;29;20511;-40
2024/01/29 06:23:28;;;;;;;8.13;4.75;;;;;;;2.20;71.08;101619.38;4954318;29;20023;-40
2024/01/29 06:25:53;;;;;;;9.73;5.00;;;;;;;2.33;71.38;101624.66;4954449;29;20028;-38
2024/01/29 06:28:19;;;;;;;12.23;5.80;;;;;;;2.40;70.29;101633.81;4954178;29;20027;-41
2024/01/29 06:30:44;;;;;;;10.18;5.32;;;;;;;2.53;70.63;101632.03;4953778;29;20495;-41
2024/01/29 06:33:09;;;;;;;7.45;4.45;;;;;;;2.35;69.91;101626.22;4953600;29;20047;-40
2024/01/29 06:35:35;;;;;;;8.13;4.55;;;;;;;2.46;69.76;101635.19;4952778;29;20034;-42
2024/01/29 06:38:02;;;;;;;8.02;4.68;;;;;;;2.43;69.43;101645.91;4952799;29;20035;-40
2024/01/29 06:40:28;;;;;;;7.68;4.78;;;;;;;2.50;69.45;101640.13;4953164;29;20035;-40
2024/01/29 06:42:57;;;;;;;8.18;4.80;;;;;;;2.65;68.98;101634.78;4950525;29;20023;-40
2024/01/29 06:45:23;;;;;;;8.02;4.75;;;;;;;2.84;68.39;101647.50;4953797;29;20035;-37
2024/01/29 06:47:48;;;;;;;7.65;4.60;;;;;;;2.87;68.11;101639.38;4953727;29;20038;-40
2024/01/29 06:50:13;;;;;;;11.02;4.90;;;;;;;2.63;68.60;101640.13;4953067;29;20042;-41
2024/01/29 06:52:39;;;;;;;9.63;5.20;;;;;;;2.76;68.03;101644.53;4953740;29;20027;-41
2024/01/29 06:55:04;;;;;;;8.13;4.47;;;;;;;2.56;67.60;101643.28;4953765;29;20042;-41
2024/01/29 06:57:30;;;;;;;8.70;4.97;;;;;;;2.68;66.79;101651.16;4951819;29;20106;-40
2024/01/29 06:59:55;;;;;;;7.88;4.43;;;;;;;2.78;66.40;101650.53;4936223;29;20031;-39
2024/01/29 07:02:21;;;;;;;7.75;4.60;;;;;;;2.74;66.23;101649.88;4934347;29;20512;-41
2024/01/29 07:04:47;;;;;;;7.60;4.57;;;;;;;2.72;66.09;101652.66;4934642;29;20030;-40
2024/01/29 07:07:13;;;;;;;7.50;4.30;;;;;;;2.70;66.07;101649.28;4934318;29;20031;-40
2024/01/29 07:09:38;;;;;;;7.95;4.50;;;;;;;2.88;65.83;101656.84;4934168;29;20049;-40
2024/01/29 07:12:05;;;;;;;9.63;5.10;;;;;;;3.55;64.00;101658.25;4933895;29;20039;-41
2024/01/29 07:14:30;;;;;;;9.20;5.00;;;;;;;3.70;62.88;101639.56;4934157;29;20232;-40
2024/01/29 07:16:56;;;;;;;7.13;4.13;;;;;;;4.19;60.25;101645.63;4933998;29;20031;-44
2024/01/29 07:19:25;;;;;;;6.80;4.43;;;;;;;4.49;59.46;101655.63;4942785;29;20038;-40
2024/01/29 07:21:51;;;;;;;6.70;3.97;;;;;;;4.15;59.33;101636.25;4952689;29;20031;-43
2024/01/29 07:24:16;;;;;;;11.90;4.47;;;;;;;4.25;58.17;101641.69;4952951;29;20031;-41
2024/01/29 07:26:42;;;;;;;5.78;3.60;;;;;;;4.10;58.68;101654.22;4953214;29;20023;-40
2024/01/29 07:29:07;;;;;;;6.63;3.90;;;;;;;3.98;58.62;101655.09;4952469;29;20027;-42
2024/01/29 07:31:32;;;;;;;11.65;4.30;;;;;;;3.92;59.20;101659.03;4953076;29;20027;-41
2024/01/29 07:33:58;;;;;;;7.70;3.97;;;;;;;4.08;59.50;101659.59;4952402;29;20141;-41
2024/01/29 07:36:23;;;;;;;6.72;3.80;;;;;;;4.00;58.46;101659.31;4952444;29;20028;-40
2024/01/29 07:38:49;;;;;;;6.03;3.78;;;;;;;4.20;58.18;101657.81;4952436;29;20049;-40
2024/01/29 07:41:14;;;;;;;11.20;4.80;;;;;;;4.06;59.19;101658.84;4952654;29;20102;-41
2024/01/29 07:43:39;;;;;;;9.52;4.63;;;;;;;4.15;57.87;101665.25;4952558;29;20038;-41
2024/01/29 07:46:05;;;;;;;7.80;4.53;;;;;;;4.10;58.54;101656.84;4952832;29;20027;-40
2024/01/29 07:48:31;;;;;;;8.80;4.65;;;;;;;4.14;58.79;101658.28;4952552;29;20023;-39
2024/01/29 07:50:56;;;;;;;8.73;4.28;;;;;;;4.02;57.33;101654.78;4952900;29;20113;-40
2024/01/29 07:53:22;;;;;;;7.97;4.20;;;;;;;4.10;57.94;101641.88;4952391;29;20038;-40
2024/01/29 07:55:47;;;;;;;6.88;3.28;;;;;;;4.33;55.79;101646.38;4952624;29;20019;-40
2024/01/29 07:58:13;;;;;;;12.63;3.90;;;;;;;4.20;56.55;101657.81;4952744;29;20116;-40
2024/01/29 08:00:39;;;;;;;5.50;3.58;;;;;;;4.43;56.31;101661.34;4952978;29;20023;-42
2024/01/29 08:03:06;;;;;;;7.00;3.22;;;;;;;4.16;56.03;101666.09;4952798;29;20035;-40
2024/01/29 08:05:32;;;;;;;5.85;3.80;;;;;;;4.27;56.38;101656.41;4952548;29;20146;-41
2024/01/29 08:07:57;;;;;;;5.65;3.42;;;;;;;4.54;55.22;101657.91;4953285;29;20027;-40
2024/01/29 08:10:23;;;;;;;8.18;3.42;;;;;;;4.17;56.61;101665.13;4953355;29;20027;-42
2024/01/29 08:12:48;;;;;;;4.05;2.92;;;;;;;4.38;56.02;101660.88;4953096;29;20544;-42
2024/01/29 08:15:14;;;;;;;3.78;2.35;;;;;;;4.07;56.22;101667.59;4953173;29;20030;-40
2024/01/29 08:17:40;;;;;;;4.07;2.40;;;;;;;3.90;57.05;101671.47;4952809;29;20038;-41
2024/01/29 08:20:06;;;;;;;3.83;2.28;;;;;;;4.18;56.80;101666.81;4952959;29;20431;-40
2024/01/29 08:22:32;;;;;;;9.25;2.63;;;;;;;4.28;56.56;101681.81;4952602;28;20055;-40
2024/01/29 08:24:59;;;;;;;6.80;2.50;;;;;;;4.50;55.42;101690.75;4953113;29;20484;-41
2024/01/29 08:27:24;;;;;;;5.82;2.70;;;;;;;4.64;55.69;101689.69;4953114;29;20027;-42
2024/01/29 08:29:50;;;;;;;5.18;3.15;;;;;;;4.89;55.86;101701.81;4953126;29;20023;-41
2024/01/29 08:32:15;;;;;;;3.65;2.53;;;;;;;4.77;55.38;101690.41;4953109;29;20050;-39
2024/01/29 08:34:40;;;;;;;5.50;2.92;;;;;;;4.50;56.51;101699.47;4953043;29;20031;-41
2024/01/29 08:37:06;;;;;;;4.30;2.67;;;;;;;4.79;55.88;101701.69;4952552;29;20392;-40
2024/01/29 08:39:32;;;;;;;4.85;2.67;;;;;;;4.95;55.51;101703.16;4953122;29;20028;-43
2024/01/29 08:41:57;;;;;;;3.80;2.40;;;;;;;4.93;54.83;101707.72;4953508;29;20027;-41
2024/01/29 08:44:23;;;;;;;6.00;3.10;;;;;;;5.10;54.98;101704.59;4953076;29;20490;-43
2024/01/29 08:46:49;;;;;;;4.28;2.63;;;;;;;5.06;54.59;101701.38;4952926;29;20058;-42
2024/01/29 08:49:16;;;;;;;6.65;3.25;;;;;;;5.01;55.18;101710.63;4953223;29;20063;-39
2024/01/29 08:51:42;;;;;;;3.90;2.60;;;;;;;4.96;55.53;101718.03;4953043;29;20124;-43
2024/01/29 08:54:07;;;;;;;6.90;2.88;;;;;;;4.97;53.99;101714.41;4952706;29;20520;-41
2024/01/29 08:56:33;;;;;;;4.35;2.50;;;;;;;4.87;54.73;101709.88;4942947;29;20024;-40
2024/01/29 08:58:59;;;;;;;4.57;2.50;;;;;;;5.16;54.24;101719.09;4952373;29;20023;-44
2024/01/29 09:01:24;;;;;;;4.97;2.63;;;;;;;5.19;52.50;101725.00;4952674;29;20078;-41
2024/01/29 09:03:51;;;;;;;4.38;2.28;;;;;;;5.31;52.41;101722.34;4952736;29;20114;-39
2024/01/29 09:06:17;;;;;;;6.72;2.55;;;;;;;5.29;52.25;101694.28;4952789;29;20032;-41
2024/01/29 09:08:43;;;;;;;3.58;2.30;;;;;;;5.74;51.47;101711.03;4952198;29;20031;-41
2024/01/29 09:11:08;;;;;;;4.38;2.47;;;;;;;5.63;51.77;101711.88;4952782;29;20022;-40
2024/01/29 09:13:33;;;;;;;5.72;2.70;;;;;;;5.59;52.31;101710.44;4952702;29;20423;-40
2024/01/29 09:15:59;;;;;;;7.63;2.97;;;;;;;5.63;52.42;101712.69;4952586;29;20023;-40
2024/01/29 09:18:24;;;;;;;5.63;2.88;;;;;;;5.38;52.37;101720.91;4952719;29;20030;-42
2024/01/29 09:20:49;;;;;;;3.97;2.60;;;;;;;5.58;52.24;101720.19;4952726;29;20035;-39
2024/01/29 09:23:15;;;;;;;3.70;2.65;;;;;;;5.67;51.56;101711.53;4952787;29;20680;-41
2024/01/29 09:25:41;;;;;;;4.30;2.67;;;;;;;5.46;52.35;101698.22;4952879;29;20110;-41
2024/01/29 09:28:07;;;;;;;5.78;2.35;;;;;;;5.82;51.97;101709.41;4939776;29;20031;-43
2024/01/29 09:30:32;;;;;;;4.97;2.65;;;;;;;6.14;50.51;101705.97;4951810;29;20047;-39
2024/01/29 09:32:58;;;;;;;5.30;2.60;;;;;;;6.64;50.26;101700.94;4951854;28;20117;-42
2024/01/29 09:35:24;;;;;;;3.88;2.63;;;;;;;6.61;49.04;101695.88;4947638;29;20063;-40
2024/01/29 09:37:49;;;;;;;3.67;2.45;;;;;;;6.73;49.25;101701.94;4956205;29;20058;-42
2024/01/29 09:40:14;;;;;;;5.57;2.95;;;;;;;6.93;48.79;101699.38;4956028;29;20464;-41
2024/01/29 09:42:41;;;;;;;8.05;2.65;;;;;;;7.19;48.62;101692.69;4956083;29;20062;-40
2024/01/29 09:45:10;;;;;;;6.15;2.95;;;;;;;7.11;47.53;101694.34;4956168;29;20031;-42
2024/01/29 09:47:37;;;;;;;4.72;2.90;;;;;;;7.54;47.91;101688.75;4955991;29;20502;-37
2024/01/29 09:50:06;;;;;;;4.55;2.80;;;;;;;7.76;47.58;101682.38;4955631;29;20050;-38
2024/01/29 09:52:35;;;;;;;5.63;3.00;;;;;;;7.32;48.11;101681.03;4954736;29;20510;-40
2024/01/29 09:55:02;;;;;;;6.35;3.20;;;;;;;7.63;48.43;101684.44;4955109;29;20616;-41
2024/01/29 09:57:27;;;;;;;7.03;2.83;;;;;;;7.44;48.80;101679.94;4953878;29;20051;-40
2024/01/29 09:59:53;;;;;;;5.20;3.10;;;;;;;8.02;46.86;101671.22;4954435;29;20057;-40
2024/01/29 10:02:19;;;;;;;4.57;2.97;;;;;;;8.45;45.88;101667.28;4955083;29;20035;-40
2024/01/29 10:04:45;;;;;;;6.40;2.85;;;;;;;8.46;45.57;101662.84;4955641;29;20023;-42
2024/01/29 10:07:11;;;;;;;2.78;2.17;;;;;;;8.48;43.37;101664.38;4955493;29;20503;-42
2024/01/29 10:09:37;;;;;;;4.70;2.40;;;;;;;8.71;42.73;101662.22;4954373;29;20035;-40
2024/01/29 10:12:03;;;;;;;3.72;2.42;;;;;;;8.56;43.53;101666.31;4953312;29;20562;-42
2024/01/29 10:14:28;;;;;;;6.95;2.58;;;;;;;8.70;42.75;101646.41;4954487;29;20054;-41
2024/01/29 10:16:54;;;;;;;3.40;2.50;;;;;;;8.85;42.40;101657.41;4955471;29;20472;-40
2024/01/29 10:19:19;;;;;;;4.03;2.40;;;;;;;9.15;41.28;101658.97;4954927;29;20027;-40
2024/01/29 10:21:45;;;;;;;3.83;2.47;;;;;;;9.13;39.88;101658.28;4955441;29;20035;-39
2024/01/29 10:24:15;;;;;;;3.55;2.38;;;;;;;9.37;39.68;101655.09;4954817;29;20089;-40
2024/01/29 10:26:42;;;;;;;4.80;2.63;;;;;;;9.17;39.83;101649.03;4955580;29;20016;-42
2024/01/29 10:29:09;;;;;;;3.97;2.30;;;;;;;9.20;40.02;101648.75;4955064;29;20019;-39
2024/01/29 10:31:34;;;;;;;4.45;2.45;;;;;;;9.34;38.83;101658.03;4955145;29;20027;-41
2024/01/29 10:34:00;;;;;;;3.50;2.25;;;;;;;9.16;36.75;101655.34;4954418;29;20051;-41
2024/01/29 10:36:26;;;;;;;3.78;2.40;;;;;;;9.40;36.14;101649.47;4954787;29;20035;-42
2024/01/29 10:38:53;;;;;;;7.05;2.67;;;;;;;9.55;36.10;101644.47;4954874;29;20510;-40
2024/01/29 10:41:21;;;;;;;5.97;2.75;;;;;;;9.07;38.10;101645.59;4954356;29;20039;-40
2024/01/29 10:43:51;;;;;;;5.00;2.40;;;;;;;9.22;37.54;101641.47;4948529;29;20127;-41
2024/01/29 10:46:21;;;;;;;5.53;2.60;;;;;;;8.82;37.68;101639.97;4949064;29;20102;-43
2024/01/29 10:48:48;;;;;;;5.10;2.90;;;;;;;8.28;39.36;101634.38;4945937;29;20499;-43
2024/01/29 10:51:15;;;;;;;7.15;2.50;;;;;;;8.65;38.32;101633.59;4948432;29;20027;-40
2024/01/29 10:53:41;;;;;;;6.40;2.58;;;;;;;8.97;37.70;101638.50;4954165;29;20111;-40
2024/01/29 10:56:08;;;;;;;4.05;2.65;;;;;;;9.23;37.60;101632.50;4952589;29;20106;-42
2024/01/29 10:58:34;;;;;;;7.05;3.05;;;;;;;8.94;37.46;101617.53;4953944;29;20027;-38
2024/01/29 11:01:00;;;;;;;5.45;2.40;;;;;;;9.13;36.91;101615.78;4953997;29;20440;-40
2024/01/29 11:03:26;;;;;;;4.35;2.70;;;;;;;9.93;35.31;101616.75;4954423;29;20510;-38
2024/01/29 11:05:59;;;;;;;4.72;2.72;;;;;;;9.77;35.45;101612.13;4954470;29;20106;-39
2024/01/29 11:08:30;;;;;;;5.05;2.90;;;;;;;9.42;36.30;101615.59;4954387;29;20504;-41
2024/01/29 11:10:57;;;;;;;6.00;3.10;;;;;;;10.06;36.16;101604.88;4953968;29;20067;-28
2024/01/29 11:13:23;;;;;;;6.75;2.92;;;;;;;10.10;35.18;101607.06;4951296;29;20106;-27
2024/01/29 11:15:48;;;;;;;6.00;3.25;;;;;;;9.89;35.66;101595.94;4941200;29;20031;-27
2024/01/29 11:18:15;;;;;;;14.23;7.90;;;;;;;9.90;35.27;101595.78;4945026;29;20029;-28
2024/01/29 11:20:41;;;;;;;5.00;3.08;;;;;;;9.70;35.80;101589.78;4951998;29;20023;-29
2024/01/29 11:23:09;;;;;;;4.30;2.67;;;;;;;9.81;34.93;101588.72;4953838;29;20106;-27
2024/01/29 11:25:36;;;;;;;5.57;3.05;;;;;;;10.11;34.56;101586.63;4953409;29;20035;-29